Time;durP1;ratioP1;P1;durP2;ratioP2;P2;SDS_P1;SDS_P2;PMS_P1;PMS_P2;Temp;Humidity;BMP_temperature;BMP_pressure;BME280_temperature;BME280_humidity;BME280_pressure;Samples;Min_cycle;Max_cycle;Signal;HPM_P1;HPM_P2
2021/09/29 00:00:00;;;;;;;7.50;3.13;;;14.20;99.90;;;;;;5048976;28;20192;-74
2021/09/29 00:02:26;;;;;;;6.53;3.05;;;14.10;99.90;;;;;;5067210;28;20176;-74
2021/09/29 00:04:52;;;;;;;6.32;3.97;;;14.00;99.90;;;;;;5050143;28;20732;-74
2021/09/29 00:07:18;;;;;;;6.68;3.45;;;14.10;99.90;;;;;;5067234;28;20157;-74
2021/09/29 00:09:44;;;;;;;5.07;3.10;;;14.20;99.90;;;;;;5067053;28;20214;-75
2021/09/29 00:12:10;;;;;;;9.73;3.22;;;14.20;99.90;;;;;;5067200;28;20164;-75
2021/09/29 00:14:36;;;;;;;5.95;3.55;;;14.20;99.90;;;;;;5066992;28;20173;-75
2021/09/29 00:17:02;;;;;;;4.22;3.30;;;14.10;99.90;;;;;;5067108;28;20164;-74
2021/09/29 00:19:28;;;;;;;5.40;3.38;;;14.00;99.90;;;;;;5067144;28;20238;-72
2021/09/29 00:21:54;;;;;;;9.15;3.58;;;14.00;99.90;;;;;;5067221;28;20679;-74
2021/09/29 00:24:20;;;;;;;4.55;3.22;;;13.90;99.90;;;;;;5067224;28;20188;-74
2021/09/29 00:26:46;;;;;;;7.72;2.88;;;14.00;99.90;;;;;;5067091;28;20605;-74
2021/09/29 00:29:12;;;;;;;11.63;3.35;;;14.00;99.90;;;;;;5066831;28;20199;-72
2021/09/29 00:31:39;;;;;;;4.05;3.15;;;14.10;99.90;;;;;;5067062;28;20157;-75
2021/09/29 00:34:08;;;;;;;5.20;3.80;;;14.00;99.90;;;;;;5068629;28;20188;-72
2021/09/29 00:36:38;;;;;;;5.05;3.20;;;13.90;99.90;;;;;;5071206;28;20173;-74
2021/09/29 00:39:05;;;;;;;5.57;2.88;;;13.90;99.90;;;;;;5071108;28;20196;-74
2021/09/29 00:41:32;;;;;;;8.00;3.58;;;14.00;99.90;;;;;;5070934;28;20215;-72
2021/09/29 00:43:58;;;;;;;3.30;2.83;;;14.00;99.90;;;;;;5070661;28;20191;-72
2021/09/29 00:46:23;;;;;;;4.43;3.35;;;14.00;99.90;;;;;;5070781;28;20157;-74
2021/09/29 00:48:50;;;;;;;4.93;2.85;;;13.90;99.90;;;;;;5070695;28;20199;-74
2021/09/29 00:51:16;;;;;;;5.68;3.83;;;13.90;99.90;;;;;;5070333;28;20220;-74
2021/09/29 00:53:42;;;;;;;4.38;3.08;;;13.80;99.90;;;;;;5051513;28;20165;-74
2021/09/29 00:56:09;;;;;;;5.45;3.00;;;13.80;99.90;;;;;;5070041;28;20184;-73
2021/09/29 00:58:35;;;;;;;9.02;3.17;;;13.80;99.90;;;;;;5052528;28;20173;-72
2021/09/29 01:01:01;;;;;;;5.78;3.72;;;13.80;99.90;;;;;;5070361;28;20189;-74
2021/09/29 01:03:27;;;;;;;6.43;3.25;;;13.90;99.90;;;;;;5070601;28;20228;-72
2021/09/29 01:06:00;;;;;;;5.13;3.13;;;13.90;99.90;;;;;;5070497;28;20164;-72
2021/09/29 01:08:35;;;;;;;4.97;3.38;;;13.90;99.90;;;;;;5070521;28;20267;-72
2021/09/29 01:11:14;;;;;;;5.53;3.22;;;13.90;99.90;;;;;;5070243;28;20184;-74
2021/09/29 01:13:52;;;;;;;5.30;3.40;;;13.80;99.90;;;;;;5052182;28;20212;-74
2021/09/29 01:16:19;;;;;;;4.55;3.00;;;13.90;99.90;;;;;;5070554;28;20156;-74
2021/09/29 01:18:55;;;;;;;4.53;2.95;;;13.90;99.90;;;;;;5068743;28;20267;-74
2021/09/29 01:21:22;;;;;;;6.93;3.55;;;13.90;99.90;;;;;;5070603;28;20217;-75
2021/09/29 01:24:15;;;;;;;5.38;3.67;;;13.80;99.90;;;;;;5070556;28;20216;-74
2021/09/29 01:26:43;;;;;;;4.90;3.55;;;13.70;99.90;;;;;;5070663;28;20168;-75
2021/09/29 01:29:12;;;;;;;4.57;3.17;;;13.80;99.90;;;;;;5070231;28;20189;-74
2021/09/29 01:31:39;;;;;;;6.53;3.20;;;13.80;99.90;;;;;;5070262;28;20208;-74
2021/09/29 01:34:07;;;;;;;8.90;3.25;;;13.70;99.90;;;;;;5070233;28;20214;-74
2021/09/29 01:36:34;;;;;;;7.07;2.80;;;13.70;99.90;;;;;;5070211;28;20165;-74
2021/09/29 01:39:04;;;;;;;6.40;3.58;;;13.60;99.90;;;;;;5069932;28;20286;-74
2021/09/29 01:41:32;;;;;;;6.35;4.15;;;13.60;99.90;;;;;;5070111;28;20228;-74
2021/09/29 01:43:59;;;;;;;4.63;3.47;;;13.70;99.90;;;;;;5069883;28;20260;-74
2021/09/29 01:46:29;;;;;;;8.82;3.70;;;13.50;99.90;;;;;;5068769;28;20211;-74
2021/09/29 01:49:19;;;;;;;7.82;3.30;;;13.50;99.90;;;;;;5069665;28;20184;-74
2021/09/29 01:51:48;;;;;;;6.03;3.33;;;13.50;99.90;;;;;;5069293;28;20216;-74
2021/09/29 01:54:16;;;;;;;4.60;3.00;;;13.50;99.90;;;;;;5069530;28;20256;-74
2021/09/29 01:56:43;;;;;;;5.97;3.35;;;13.50;99.90;;;;;;5069754;28;20191;-74
2021/09/29 01:59:11;;;;;;;4.95;3.55;;;13.60;99.90;;;;;;5069631;28;20212;-74
2021/09/29 02:01:37;;;;;;;4.28;3.45;;;13.60;99.90;;;;;;5069731;28;20172;-74
2021/09/29 02:04:06;;;;;;;8.27;4.40;;;13.60;99.90;;;;;;5069345;28;20199;-74
2021/09/29 02:06:47;;;;;;;5.07;3.42;;;13.60;99.90;;;;;;5069428;28;20164;-74
2021/09/29 02:09:13;;;;;;;4.75;3.58;;;13.60;99.90;;;;;;5069363;28;20192;-74
2021/09/29 02:11:39;;;;;;;7.90;3.75;;;13.50;99.90;;;;;;5069409;28;20157;-74
2021/09/29 02:14:06;;;;;;;6.53;3.97;;;13.40;99.90;;;;;;5069542;28;20167;-74
2021/09/29 02:16:32;;;;;;;4.43;3.10;;;13.40;99.90;;;;;;5069420;28;20171;-74
2021/09/29 02:18:59;;;;;;;4.70;3.67;;;13.40;99.90;;;;;;5069190;28;20324;-75
2021/09/29 02:21:25;;;;;;;4.45;3.15;;;13.50;99.90;;;;;;5069054;28;20160;-74
2021/09/29 02:23:51;;;;;;;6.70;4.38;;;13.40;99.90;;;;;;5069123;28;20192;-74
2021/09/29 02:26:16;;;;;;;4.70;3.30;;;13.40;99.90;;;;;;5069263;28;20167;-74
2021/09/29 02:28:42;;;;;;;5.55;3.47;;;13.40;99.90;;;;;;5069056;28;20161;-74
2021/09/29 02:31:08;;;;;;;7.30;4.43;;;13.40;99.90;;;;;;5068984;28;20160;-73
2021/09/29 02:33:34;;;;;;;4.68;3.28;;;13.30;99.90;;;;;;5050658;28;20183;-75
2021/09/29 02:36:00;;;;;;;4.70;3.30;;;13.40;99.90;;;;;;5068813;28;20169;-73
2021/09/29 02:38:26;;;;;;;4.15;3.60;;;13.30;99.90;;;;;;5068636;28;20191;-73
2021/09/29 02:40:52;;;;;;;6.88;3.88;;;13.30;99.90;;;;;;5068988;28;20168;-74
2021/09/29 02:43:18;;;;;;;7.75;3.60;;;13.20;99.90;;;;;;5068723;28;20221;-74
2021/09/29 02:45:45;;;;;;;4.95;3.80;;;13.20;99.90;;;;;;5068919;28;20617;-75
2021/09/29 02:48:12;;;;;;;8.77;3.22;;;13.20;99.90;;;;;;5069359;28;20248;-74
2021/09/29 02:50:39;;;;;;;5.28;3.63;;;13.20;99.90;;;;;;5068984;28;20199;-74
2021/09/29 02:53:06;;;;;;;5.28;3.35;;;13.20;99.90;;;;;;5068896;28;20231;-75
2021/09/29 02:55:32;;;;;;;6.88;3.72;;;13.30;99.90;;;;;;5069013;28;20155;-73
2021/09/29 02:57:58;;;;;;;6.78;3.35;;;13.30;99.90;;;;;;5068651;28;20244;-74
2021/09/29 03:00:24;;;;;;;9.70;3.63;;;13.30;99.90;;;;;;5066847;28;20225;-74
2021/09/29 03:02:50;;;;;;;5.50;3.05;;;13.10;99.90;;;;;;5068379;28;20156;-72
2021/09/29 03:05:16;;;;;;;5.03;3.45;;;13.00;99.90;;;;;;5068428;28;20204;-73
2021/09/29 03:07:42;;;;;;;5.60;3.60;;;12.90;99.90;;;;;;5068023;28;20656;-74
2021/09/29 03:10:08;;;;;;;5.28;3.78;;;12.80;99.90;;;;;;5068108;28;20684;-74
2021/09/29 03:12:34;;;;;;;9.52;4.10;;;12.80;99.90;;;;;;5068130;28;20160;-73
2021/09/29 03:15:00;;;;;;;7.53;4.15;;;12.80;99.90;;;;;;5068158;28;20157;-73
2021/09/29 03:17:26;;;;;;;6.53;4.72;;;12.80;99.90;;;;;;5068232;28;20157;-74
2021/09/29 03:19:52;;;;;;;8.50;3.75;;;12.80;99.90;;;;;;5068672;28;20192;-74
2021/09/29 03:22:18;;;;;;;14.07;4.47;;;12.80;99.90;;;;;;5068387;28;20157;-73
2021/09/29 03:24:44;;;;;;;8.45;4.60;;;12.90;99.90;;;;;;5068028;28;20220;-72
2021/09/29 03:27:10;;;;;;;5.65;3.90;;;12.90;99.90;;;;;;5068263;28;20153;-73
2021/09/29 03:29:36;;;;;;;7.28;3.85;;;12.90;99.90;;;;;;5068227;28;20251;-74
2021/09/29 03:32:03;;;;;;;5.78;4.20;;;12.90;99.90;;;;;;5066739;28;20177;-74
2021/09/29 03:34:29;;;;;;;7.28;4.30;;;12.90;99.90;;;;;;5068036;28;20164;-73
2021/09/29 03:36:55;;;;;;;9.07;4.05;;;13.00;99.90;;;;;;5067998;28;20161;-73
2021/09/29 03:39:21;;;;;;;7.97;4.72;;;12.90;99.90;;;;;;5067804;28;20188;-72
2021/09/29 03:41:47;;;;;;;5.13;3.40;;;12.90;99.90;;;;;;5066439;28;20182;-72
2021/09/29 03:44:16;;;;;;;5.35;3.53;;;12.90;99.90;;;;;;5067844;28;20216;-73
2021/09/29 03:46:42;;;;;;;7.10;4.10;;;12.80;99.90;;;;;;5067946;28;20185;-74
2021/09/29 03:49:08;;;;;;;8.32;4.45;;;12.80;99.90;;;;;;5068531;28;20188;-73
2021/09/29 03:51:34;;;;;;;4.82;3.83;;;12.90;99.90;;;;;;5068350;28;20231;-73
2021/09/29 03:54:00;;;;;;;15.63;4.88;;;12.90;99.90;;;;;;5068105;28;20172;-74
2021/09/29 03:56:26;;;;;;;10.18;4.38;;;12.90;99.90;;;;;;5067787;28;20165;-73
2021/09/29 03:58:52;;;;;;;8.00;4.55;;;12.80;99.90;;;;;;5049412;28;20207;-74
2021/09/29 04:01:19;;;;;;;8.68;4.25;;;12.90;99.90;;;;;;5049327;28;20169;-73
2021/09/29 04:03:45;;;;;;;7.60;4.10;;;12.90;99.90;;;;;;5067440;28;20252;-73
2021/09/29 04:06:11;;;;;;;8.88;5.07;;;12.90;99.90;;;;;;5067426;28;20231;-74
2021/09/29 04:08:37;;;;;;;8.27;5.25;;;12.90;99.90;;;;;;5066803;28;20153;-74
2021/09/29 04:11:03;;;;;;;7.55;4.22;;;12.90;99.90;;;;;;5067417;28;20152;-73
2021/09/29 04:13:31;;;;;;;7.97;4.57;;;12.90;99.90;;;;;;5067484;28;20176;-72
2021/09/29 04:15:57;;;;;;;8.93;4.28;;;12.90;99.90;;;;;;5067419;28;20179;-73
2021/09/29 04:18:23;;;;;;;9.15;3.80;;;12.90;99.90;;;;;;5067181;28;20169;-73
2021/09/29 04:20:49;;;;;;;7.15;3.97;;;12.90;99.90;;;;;;5067118;28;20662;-72
2021/09/29 04:23:15;;;;;;;8.52;4.75;;;12.90;99.90;;;;;;5067066;28;20183;-71
2021/09/29 04:25:41;;;;;;;9.98;4.32;;;12.90;99.90;;;;;;5067087;28;20149;-72
2021/09/29 04:28:08;;;;;;;6.65;4.20;;;13.00;99.90;;;;;;5067285;28;20157;-71
2021/09/29 04:30:34;;;;;;;8.70;4.47;;;13.00;99.90;;;;;;5067089;28;20185;-73
2021/09/29 04:33:00;;;;;;;10.40;4.47;;;12.90;99.90;;;;;;5067106;28;20161;-72
2021/09/29 04:35:27;;;;;;;7.72;4.78;;;13.00;99.90;;;;;;5067140;28;20186;-72
2021/09/29 04:37:54;;;;;;;10.63;4.93;;;13.00;99.90;;;;;;5067135;28;20591;-74
2021/09/29 04:40:20;;;;;;;9.43;4.75;;;13.00;99.90;;;;;;5066779;28;20199;-73
2021/09/29 04:42:46;;;;;;;8.75;5.15;;;12.90;99.90;;;;;;5067144;28;20165;-73
2021/09/29 04:45:12;;;;;;;10.80;4.90;;;13.00;99.90;;;;;;5066967;28;20181;-72
2021/09/29 04:47:39;;;;;;;9.65;4.18;;;13.00;99.90;;;;;;5066780;28;20153;-72
2021/09/29 04:50:05;;;;;;;6.93;4.55;;;13.10;99.90;;;;;;5065446;28;20208;-72
2021/09/29 04:52:31;;;;;;;12.43;5.72;;;13.00;99.90;;;;;;5066511;28;20212;-73
2021/09/29 04:54:57;;;;;;;11.18;5.57;;;12.90;99.90;;;;;;5048918;28;20187;-72
2021/09/29 04:57:23;;;;;;;8.80;5.13;;;12.90;99.90;;;;;;5066760;28;20176;-73
2021/09/29 04:59:49;;;;;;;10.68;4.82;;;12.90;99.90;;;;;;5065398;28;20545;-74
2021/09/29 05:02:15;;;;;;;9.68;5.28;;;12.90;99.90;;;;;;5066816;28;20172;-73
2021/09/29 05:04:41;;;;;;;15.27;5.05;;;13.00;99.90;;;;;;5066918;28;20211;-73
2021/09/29 05:07:17;;;;;;;12.73;5.03;;;13.00;99.90;;;;;;5066779;28;20157;-73
2021/09/29 05:09:45;;;;;;;7.75;4.65;;;13.00;99.90;;;;;;5066577;28;20241;-73
2021/09/29 05:12:32;;;;;;;8.73;4.80;;;13.00;99.90;;;;;;5066470;28;20169;-73
2021/09/29 05:14:58;;;;;;;10.68;5.20;;;13.10;99.90;;;;;;5048550;28;20172;-73
2021/09/29 05:17:26;;;;;;;13.07;5.35;;;13.10;99.90;;;;;;5066790;28;20191;-75
2021/09/29 05:19:52;;;;;;;11.15;5.47;;;13.10;99.90;;;;;;5067764;28;20196;-73
2021/09/29 05:22:18;;;;;;;13.00;5.25;;;13.10;99.90;;;;;;5070446;28;20175;-73
2021/09/29 05:24:44;;;;;;;20.23;5.88;;;13.10;99.90;;;;;;5070371;28;20496;-73
2021/09/29 05:27:10;;;;;;;11.75;4.78;;;13.20;99.90;;;;;;5070293;28;20188;-72
2021/09/29 05:29:39;;;;;;;12.45;5.18;;;13.20;99.90;;;;;;5070292;28;20240;-73
2021/09/29 05:32:05;;;;;;;16.15;5.40;;;13.20;99.90;;;;;;5070001;28;20157;-73
2021/09/29 05:34:31;;;;;;;9.75;5.10;;;13.20;99.90;;;;;;5070304;28;20161;-73
2021/09/29 05:36:57;;;;;;;11.02;4.85;;;13.30;99.90;;;;;;5070105;28;20273;-73
2021/09/29 05:39:23;;;;;;;10.15;4.90;;;13.30;99.90;;;;;;5070000;28;20226;-72
2021/09/29 05:41:49;;;;;;;11.57;5.10;;;13.30;99.90;;;;;;5069870;28;20165;-75
2021/09/29 05:44:15;;;;;;;11.70;5.57;;;13.40;99.90;;;;;;5069890;28;20211;-73
2021/09/29 05:46:41;;;;;;;8.40;4.60;;;13.50;99.90;;;;;;5069981;28;20153;-73
2021/09/29 05:49:07;;;;;;;11.65;4.72;;;13.60;99.90;;;;;;5069603;28;20199;-74
2021/09/29 05:51:33;;;;;;;10.02;4.93;;;13.70;99.90;;;;;;5064431;28;20240;-73
2021/09/29 05:53:59;;;;;;;12.02;4.70;;;13.70;99.90;;;;;;5049598;28;20241;-74
2021/09/29 05:56:25;;;;;;;12.23;5.50;;;13.80;99.90;;;;;;5049412;28;20195;-73
2021/09/29 05:58:51;;;;;;;13.98;4.75;;;13.90;99.90;;;;;;5048611;28;20201;-73
2021/09/29 06:01:17;;;;;;;11.07;5.53;;;14.10;99.90;;;;;;5048446;28;20165;-73
2021/09/29 06:03:43;;;;;;;12.55;4.88;;;14.20;99.90;;;;;;5048607;28;20212;-74
2021/09/29 06:06:09;;;;;;;15.82;5.32;;;14.30;99.90;;;;;;5048993;28;20520;-74
2021/09/29 06:08:35;;;;;;;14.95;5.45;;;14.40;99.90;;;;;;5049741;28;20173;-73
2021/09/29 06:11:01;;;;;;;10.60;5.05;;;14.50;99.90;;;;;;5049830;28;20533;-74
2021/09/29 06:13:27;;;;;;;9.95;5.32;;;14.70;99.90;;;;;;5049839;28;20192;-75
2021/09/29 06:15:53;;;;;;;7.85;5.03;;;14.80;99.90;;;;;;5049817;28;20166;-74
2021/09/29 06:18:19;;;;;;;6.78;4.93;;;14.90;99.90;;;;;;5049759;28;20170;-75
2021/09/29 06:20:51;;;;;;;12.27;5.18;;;15.10;99.90;;;;;;5049609;28;20193;-74
2021/09/29 06:23:18;;;;;;;11.50;5.45;;;15.30;99.90;;;;;;5048243;28;20245;-73
2021/09/29 06:25:46;;;;;;;11.35;5.72;;;15.30;99.90;;;;;;5049754;28;20180;-73
2021/09/29 06:28:12;;;;;;;9.45;4.60;;;15.30;99.90;;;;;;5049531;28;20166;-73
2021/09/29 06:30:38;;;;;;;11.95;5.65;;;15.50;99.90;;;;;;5049407;28;20204;-73
2021/09/29 06:33:04;;;;;;;6.38;4.80;;;15.70;99.90;;;;;;5048951;28;20209;-76
2021/09/29 06:35:31;;;;;;;8.82;5.05;;;15.80;99.90;;;;;;5049381;28;20165;-73
2021/09/29 06:37:58;;;;;;;6.80;4.63;;;15.90;99.90;;;;;;5047964;28;20264;-74
2021/09/29 06:40:24;;;;;;;7.90;5.22;;;16.10;99.90;;;;;;5049007;28;20251;-74
2021/09/29 06:42:51;;;;;;;8.90;4.70;;;16.10;99.90;;;;;;5049053;28;20174;-73
2021/09/29 06:45:18;;;;;;;9.63;5.25;;;16.10;99.90;;;;;;5048436;28;20243;-74
2021/09/29 06:47:45;;;;;;;14.23;5.50;;;16.10;99.90;;;;;;5048661;28;20495;-73
2021/09/29 06:50:13;;;;;;;10.38;4.85;;;16.00;99.90;;;;;;5048649;28;20265;-74
2021/09/29 06:52:39;;;;;;;11.18;5.07;;;16.10;99.90;;;;;;5064533;28;20265;-74
2021/09/29 06:55:07;;;;;;;11.43;6.07;;;16.20;99.90;;;;;;5068839;28;20172;-74
2021/09/29 06:57:34;;;;;;;7.97;5.57;;;16.30;99.90;;;;;;5068668;28;20165;-74
2021/09/29 07:00:01;;;;;;;9.10;5.15;;;16.50;99.90;;;;;;5068561;28;20185;-74
2021/09/29 07:02:27;;;;;;;9.13;5.10;;;16.50;99.90;;;;;;5068676;28;20165;-74
2021/09/29 07:04:53;;;;;;;7.50;5.00;;;16.60;99.90;;;;;;5068608;28;20196;-74
2021/09/29 07:07:19;;;;;;;12.18;6.90;;;16.70;99.90;;;;;;5068491;28;20168;-75
2021/09/29 07:09:45;;;;;;;9.07;6.28;;;17.00;99.90;;;;;;5068465;28;20260;-74
2021/09/29 07:12:10;;;;;;;10.40;6.03;;;17.10;99.90;;;;;;5068316;28;20167;-74
2021/09/29 07:14:36;;;;;;;10.98;5.50;;;17.00;99.90;;;;;;5068291;28;20165;-73
2021/09/29 07:17:03;;;;;;;12.45;6.80;;;16.90;99.90;;;;;;5067743;28;20176;-75
2021/09/29 07:19:29;;;;;;;9.75;5.75;;;17.00;99.90;;;;;;5068266;28;20294;-74
2021/09/29 07:21:55;;;;;;;12.25;6.18;;;17.00;99.90;;;;;;5068044;28;20157;-74
2021/09/29 07:24:21;;;;;;;11.05;6.13;;;17.10;99.90;;;;;;5068204;28;20188;-74
2021/09/29 07:26:47;;;;;;;9.02;6.47;;;17.30;99.90;;;;;;5050305;28;20180;-75
2021/09/29 07:29:14;;;;;;;13.38;6.40;;;17.50;99.90;;;;;;5068178;28;20196;-75
2021/09/29 07:31:40;;;;;;;13.32;6.85;;;17.70;99.90;;;;;;5068035;28;20156;-75
2021/09/29 07:34:07;;;;;;;8.57;6.20;;;17.80;99.90;;;;;;5068092;28;20164;-74
2021/09/29 07:36:39;;;;;;;12.57;6.32;;;17.90;99.90;;;;;;5064692;28;20354;-73
2021/09/29 07:39:05;;;;;;;10.38;6.40;;;17.90;99.90;;;;;;5058779;28;20188;-74
2021/09/29 07:41:31;;;;;;;8.88;6.10;;;18.20;99.90;;;;;;5056515;28;20169;-74
2021/09/29 07:43:57;;;;;;;11.10;6.32;;;18.60;99.90;;;;;;5046574;28;20193;-75
2021/09/29 07:46:24;;;;;;;12.88;6.28;;;18.70;99.90;;;;;;5063328;28;20169;-75
2021/09/29 07:48:50;;;;;;;7.00;5.72;;;18.60;99.90;;;;;;5049602;28;20235;-73
2021/09/29 07:51:16;;;;;;;10.98;6.20;;;18.60;99.90;;;;;;5067472;28;20226;-73
2021/09/29 07:53:42;;;;;;;9.95;6.38;;;18.80;99.90;;;;;;5061661;28;20181;-75
2021/09/29 07:56:08;;;;;;;8.13;6.00;;;18.90;99.90;;;;;;5047923;28;20165;-75
2021/09/29 07:58:34;;;;;;;7.80;6.57;;;18.90;99.90;;;;;;5047739;28;20187;-74
2021/09/29 08:01:01;;;;;;;8.35;6.18;;;18.90;99.90;;;;;;5047760;28;20154;-74
2021/09/29 08:03:28;;;;;;;9.98;6.13;;;19.20;99.90;;;;;;5047572;28;20165;-74
2021/09/29 08:05:58;;;;;;;8.30;5.63;;;19.10;99.90;;;;;;5047629;28;20188;-74
2021/09/29 08:08:24;;;;;;;7.53;5.80;;;19.20;99.90;;;;;;5047420;28;20630;-73
2021/09/29 08:10:50;;;;;;;8.95;6.28;;;19.40;99.90;;;;;;5053983;28;20172;-74
2021/09/29 08:13:16;;;;;;;7.82;6.38;;;19.90;99.90;;;;;;5067505;28;20163;-74
2021/09/29 08:15:42;;;;;;;9.48;6.38;;;20.10;99.90;;;;;;5049466;28;20519;-74
2021/09/29 08:18:08;;;;;;;7.88;5.43;;;20.30;99.90;;;;;;5067551;28;20159;-73
2021/09/29 08:20:36;;;;;;;7.43;5.28;;;20.10;99.90;;;;;;5067379;28;20671;-73
2021/09/29 08:28:23;;;;;;;8.43;5.70;;;20.20;99.90;;;;;;5067623;28;20287;-73
2021/09/29 08:31:01;;;;;;;11.85;6.18;;;20.20;99.90;;;;;;5049337;28;20168;-73
2021/09/29 08:47:07;;;;;;;9.77;5.93;;;20.40;99.90;;;;;;5066825;28;20169;-72
2021/09/29 08:49:52;;;;;;;9.23;6.00;;;20.90;99.90;;;;;;5067009;28;20153;-73
2021/09/29 08:52:35;;;;;;;8.13;6.10;;;20.80;99.90;;;;;;5067050;28;20222;-72
2021/09/29 08:58:04;;;;;;;8.27;5.80;;;20.70;99.90;;;;;;5039738;28;20191;-72
2021/09/29 09:17:04;;;;;;;5.78;4.63;;;23.00;99.90;;;;;;5070862;28;20160;-74
2021/09/29 09:19:31;;;;;;;7.50;5.50;;;23.40;99.90;;;;;;5068343;28;20509;-72
2021/09/29 09:22:01;;;;;;;6.93;4.95;;;23.20;99.90;;;;;;5070390;28;20156;-72
2021/09/29 09:24:30;;;;;;;6.00;4.72;;;23.20;99.90;;;;;;5052867;28;20276;-73
2021/09/29 09:26:59;;;;;;;5.50;4.93;;;22.60;99.90;;;;;;5070517;28;20214;-73
2021/09/29 09:29:25;;;;;;;9.50;5.13;;;23.30;99.90;;;;;;5070625;28;20840;-71
2021/09/29 09:31:53;;;;;;;6.22;4.55;;;22.50;99.90;;;;;;5069182;28;20192;-71
2021/09/29 09:34:19;;;;;;;7.82;5.15;;;21.50;99.90;;;;;;5070627;28;20163;-71
2021/09/29 09:36:50;;;;;;;7.38;5.25;;;21.20;99.90;;;;;;5070557;28;20206;-71
2021/09/29 09:39:22;;;;;;;8.82;5.63;;;22.40;99.90;;;;;;5069283;28;20188;-73
2021/09/29 09:41:53;;;;;;;6.15;4.85;;;22.40;99.90;;;;;;5070294;28;20225;-74
2021/09/29 09:44:25;;;;;;;8.15;5.15;;;22.40;99.90;;;;;;5051984;28;20691;-73
2021/09/29 09:47:11;;;;;;;6.75;5.30;;;22.70;99.90;;;;;;5070116;28;20216;-73
2021/09/29 09:49:55;;;;;;;5.78;4.65;;;22.30;99.90;;;;;;5069911;28;20540;-73
2021/09/29 09:52:43;;;;;;;6.03;4.15;;;22.60;99.90;;;;;;5051574;28;20215;-73
2021/09/29 09:55:13;;;;;;;4.40;4.00;;;23.60;99.90;;;;;;5069884;28;20165;-73
2021/09/29 09:57:41;;;;;;;7.28;4.32;;;24.10;99.90;;;;;;5069889;28;20160;-73
2021/09/29 10:00:13;;;;;;;7.63;5.25;;;23.10;99.90;;;;;;5051618;28;20287;-72
2021/09/29 10:02:48;;;;;;;9.35;5.30;;;22.80;99.90;;;;;;5069656;28;20220;-73
2021/09/29 10:05:17;;;;;;;6.47;4.63;;;23.50;99.90;;;;;;5069784;28;20237;-72
2021/09/29 10:07:47;;;;;;;5.03;4.10;;;23.10;99.90;;;;;;5068678;28;20214;-72
2021/09/29 10:10:32;;;;;;;7.47;5.20;;;22.80;99.90;;;;;;5067352;28;20188;-72
2021/09/29 10:27:52;;;;;;;6.18;4.55;;;21.80;99.90;;;;;;5066051;28;20175;-73
2021/09/29 10:30:33;;;;;;;7.38;3.88;;;21.60;99.90;;;;;;5068793;28;20215;-73
2021/09/29 10:33:01;;;;;;;4.75;3.85;;;21.60;99.90;;;;;;5068070;28;20193;-72
2021/09/29 10:43:16;;;;;;;8.35;4.20;;;22.60;99.90;;;;;;5069078;28;20247;-72
2021/09/29 10:48:46;;;;;;;5.15;3.60;;;23.90;99.90;;;;;;5049269;28;20179;-72
2021/09/29 11:30:02;;;;;;;5.32;4.50;;;20.80;99.90;;;;;;5068191;28;20159;-73
2021/09/29 11:32:41;;;;;;;9.82;4.35;;;20.80;99.90;;;;;;5068220;28;20228;-73
2021/09/29 11:35:39;;;;;;;5.90;4.68;;;21.10;99.90;;;;;;5068106;28;20156;-73
2021/09/29 12:08:19;;;;;;;8.52;5.13;;;20.40;99.90;;;;;;5067504;28;20170;-72
2021/09/29 12:11:00;;;;;;;6.97;5.63;;;20.20;99.90;;;;;;5049387;28;20179;-72
2021/09/29 12:13:57;;;;;;;7.18;5.07;;;20.20;99.90;;;;;;5067051;28;20187;-73
2021/09/29 12:16:32;;;;;;;8.00;5.72;;;20.00;99.90;;;;;;5067711;28;20145;-73
2021/09/29 12:19:21;;;;;;;6.03;5.35;;;19.90;99.90;;;;;;5067614;28;20202;-73
2021/09/29 12:21:52;;;;;;;7.75;5.68;;;19.80;99.90;;;;;;5067060;28;20189;-73
2021/09/29 12:24:31;;;;;;;7.28;5.45;;;19.70;99.90;;;;;;5066807;28;20184;-74
2021/09/29 12:27:01;;;;;;;6.78;5.35;;;19.50;99.90;;;;;;5067427;28;20161;-73
2021/09/29 12:29:37;;;;;;;7.90;6.13;;;19.40;99.90;;;;;;5067895;28;20165;-74
2021/09/29 12:37:59;;;;;;;12.50;6.85;;;18.90;99.90;;;;;;5071296;28;20518;-72
2021/09/29 12:40:27;;;;;;;14.30;6.90;;;18.70;99.90;;;;;;5083870;28;20190;-72
2021/09/29 12:43:03;;;;;;;9.85;7.07;;;18.70;99.90;;;;;;5091144;28;20195;-73
2021/09/29 12:45:35;;;;;;;8.45;6.30;;;18.60;99.90;;;;;;5062301;28;20300;-72
2021/09/29 12:48:01;;;;;;;11.40;6.78;;;18.70;99.90;;;;;;5071040;28;20188;-73
2021/09/29 12:50:43;;;;;;;9.00;7.00;;;18.60;99.90;;;;;;5071081;28;20512;-73
2021/09/29 12:55:59;;;;;;;9.25;6.63;;;18.40;99.90;;;;;;5070657;28;20153;-72
2021/09/29 12:58:27;;;;;;;12.57;6.68;;;18.40;99.90;;;;;;5053291;28;20192;-73
2021/09/29 13:00:54;;;;;;;14.57;8.10;;;18.20;99.90;;;;;;5070862;28;20190;-73
2021/09/29 13:03:20;;;;;;;11.00;7.22;;;18.20;99.90;;;;;;5068419;28;20655;-73
2021/09/29 13:05:47;;;;;;;10.90;7.30;;;18.20;99.90;;;;;;5069844;28;20251;-74
2021/09/29 13:08:14;;;;;;;10.23;7.40;;;18.20;99.90;;;;;;5070187;28;20291;-74
2021/09/29 13:10:41;;;;;;;12.30;7.85;;;18.30;99.90;;;;;;5070677;28;20172;-75
2021/09/29 13:13:09;;;;;;;11.13;7.13;;;18.40;99.90;;;;;;5070723;28;20188;-76
2021/09/29 13:15:41;;;;;;;9.02;6.68;;;18.40;99.90;;;;;;5070968;28;20168;-76
2021/09/29 13:18:11;;;;;;;11.57;7.25;;;18.30;99.90;;;;;;5052175;28;20181;-76
2021/09/29 13:20:39;;;;;;;9.93;7.00;;;18.10;99.90;;;;;;5070617;28;20152;-76
2021/09/29 13:23:14;;;;;;;11.55;7.65;;;18.10;99.90;;;;;;5070247;28;20188;-76
2021/09/29 13:36:40;;;;;;;8.20;5.63;;;18.10;99.90;;;;;;5070511;28;20171;-74
2021/09/29 13:39:08;;;;;;;8.00;5.70;;;18.00;99.90;;;;;;5072369;28;20184;-74
2021/09/29 13:41:34;;;;;;;8.38;4.97;;;17.90;99.90;;;;;;5088907;28;20195;-75
2021/09/29 13:44:00;;;;;;;8.75;5.85;;;17.80;99.90;;;;;;5090219;28;20188;-76
2021/09/29 13:46:26;;;;;;;9.02;6.15;;;17.70;99.90;;;;;;5071492;28;20202;-75
2021/09/29 13:48:54;;;;;;;8.98;6.95;;;17.70;99.90;;;;;;5070203;28;20157;-75
2021/09/29 13:51:19;;;;;;;12.32;7.28;;;17.50;99.90;;;;;;5069843;28;20632;-74
2021/09/29 13:53:45;;;;;;;9.15;7.00;;;17.50;99.90;;;;;;5069811;28;20183;-75
2021/09/29 13:56:14;;;;;;;10.57;7.43;;;17.40;99.90;;;;;;5070047;28;20157;-75
2021/09/29 14:28:43;;;;;;;3.20;2.42;;;16.00;99.90;;;;;;5068606;28;20178;-74
2021/09/29 14:31:15;;;;;;;4.40;2.35;;;16.00;99.90;;;;;;5068555;28;20211;-73
2021/09/29 14:33:46;;;;;;;3.78;2.35;;;16.00;99.90;;;;;;5069109;28;20179;-73
2021/09/29 14:36:15;;;;;;;4.05;2.38;;;15.90;99.90;;;;;;5068948;28;20156;-74
2021/09/29 14:38:47;;;;;;;6.35;2.75;;;16.00;99.90;;;;;;5068615;28;20176;-74
2021/09/29 14:41:14;;;;;;;3.28;2.38;;;16.00;99.90;;;;;;5087914;28;20207;-76
2021/09/29 14:43:40;;;;;;;3.63;2.67;;;16.20;99.90;;;;;;5088497;28;20171;-73
2021/09/29 14:46:07;;;;;;;5.13;2.42;;;16.30;99.90;;;;;;5072601;28;20165;-76
2021/09/29 14:48:34;;;;;;;4.07;2.55;;;16.40;99.90;;;;;;5067024;28;20561;-75
2021/09/29 14:51:04;;;;;;;7.50;3.45;;;16.50;99.90;;;;;;5068483;28;20192;-76
2021/09/29 14:53:32;;;;;;;4.78;2.00;;;16.60;99.90;;;;;;5068349;28;20153;-76
2021/09/29 14:56:00;;;;;;;5.35;2.70;;;16.70;99.90;;;;;;5067872;28;20598;-75
2021/09/29 14:58:26;;;;;;;5.20;2.50;;;16.90;99.90;;;;;;5050230;28;20169;-75
2021/09/29 15:00:53;;;;;;;5.13;2.72;;;17.00;99.90;;;;;;5067599;28;20271;-75
2021/09/29 15:03:22;;;;;;;2.50;2.20;;;17.10;99.90;;;;;;5068352;28;20188;-75
2021/09/29 15:05:48;;;;;;;2.60;1.98;;;17.20;99.90;;;;;;5068470;28;20180;-75
2021/09/29 15:08:14;;;;;;;2.63;2.10;;;17.00;99.90;;;;;;5062085;28;20183;-75
2021/09/29 15:10:40;;;;;;;2.45;1.98;;;16.90;99.90;;;;;;5075389;28;20180;-76
2021/09/29 15:13:07;;;;;;;5.60;1.90;;;16.80;99.90;;;;;;5067665;28;20149;-75
2021/09/29 15:15:39;;;;;;;2.50;1.80;;;16.80;99.90;;;;;;5076922;28;20244;-75
2021/09/29 15:18:09;;;;;;;2.60;1.67;;;16.80;99.90;;;;;;5067579;28;20157;-76
2021/09/29 15:30:38;;;;;;;2.15;1.63;;;16.40;99.90;;;;;;5083075;28;20624;-76
2021/09/29 15:51:51;;;;;;;1.20;1.00;;;16.60;99.90;;;;;;5067542;28;20220;-77
2021/09/29 16:02:13;;;;;;;1.85;1.23;;;16.40;99.90;;;;;;5066919;28;20192;-75
2021/09/29 16:31:32;;;;;;;5.25;1.10;;;16.20;99.90;;;;;;5049663;28;20199;-76
2021/09/29 16:34:18;;;;;;;3.78;1.75;;;16.10;99.90;;;;;;5066852;28;20168;-74
2021/09/29 16:36:45;;;;;;;4.40;1.83;;;16.00;99.90;;;;;;5049148;28;20259;-76
2021/09/29 16:39:11;;;;;;;2.33;1.60;;;16.10;99.90;;;;;;5065972;28;20193;-75
2021/09/29 16:41:38;;;;;;;2.83;1.52;;;16.10;99.90;;;;;;5067160;28;20632;-75
2021/09/29 16:44:05;;;;;;;4.25;2.35;;;16.10;99.90;;;;;;5065889;28;20511;-74
2021/09/29 16:46:33;;;;;;;3.63;1.95;;;16.20;99.90;;;;;;5048921;28;20735;-74
2021/09/29 16:48:59;;;;;;;3.00;1.50;;;16.30;99.90;;;;;;5067005;28;20149;-74
2021/09/29 16:51:48;;;;;;;1.73;1.50;;;16.30;99.90;;;;;;5045372;28;20271;-75
2021/09/29 16:54:17;;;;;;;3.33;1.08;;;16.30;99.90;;;;;;5046544;28;20204;-74
2021/09/29 16:56:43;;;;;;;1.45;1.08;;;16.20;99.90;;;;;;5041770;28;20204;-78